createdAt,value
2023-05-08T00:00:25.286Z,14.77
2023-05-08T00:00:41.863Z,14.77
2023-05-08T00:01:12.338Z,14.72
2023-05-08T00:01:35.028Z,14.72
2023-05-08T00:02:02.057Z,14.72
2023-05-08T00:02:35.538Z,14.72
2023-05-08T00:03:04.549Z,14.72
2023-05-08T00:03:35.860Z,14.72
2023-05-08T00:04:08.556Z,14.72
2023-05-08T00:04:35.369Z,14.72
2023-05-08T00:04:55.809Z,14.72
2023-05-08T00:05:29.490Z,14.72
2023-05-08T00:05:59.708Z,14.72
2023-05-08T00:06:31.861Z,14.72
2023-05-08T00:07:03.777Z,14.72
2023-05-08T00:07:35.072Z,14.72
2023-05-08T00:07:52.330Z,14.72
2023-05-08T00:08:24.089Z,14.72
2023-05-08T00:08:41.076Z,14.72
2023-05-08T00:09:12.631Z,14.72
2023-05-08T00:09:35.077Z,14.72
2023-05-08T00:09:59.724Z,14.72
2023-05-08T00:10:32.714Z,14.72
2023-05-08T00:11:03.732Z,14.72
2023-05-08T00:11:35.081Z,14.72
2023-05-08T00:11:52.570Z,14.72
2023-05-08T00:12:23.899Z,14.72
2023-05-08T00:12:41.707Z,14.72
2023-05-08T00:13:12.739Z,14.72
2023-05-08T00:13:35.662Z,14.72
2023-05-08T00:13:59.700Z,14.72
2023-05-08T00:14:32.545Z,14.72
2023-05-08T00:15:03.985Z,14.72
2023-05-08T00:15:36.971Z,14.72
2023-05-08T00:16:07.749Z,14.72
2023-05-08T00:16:35.088Z,14.72
2023-05-08T00:16:56.727Z,14.72
2023-05-08T00:17:27.832Z,14.72
2023-05-08T00:18:00.650Z,14.72
2023-05-08T00:18:31.899Z,14.72
2023-05-08T00:19:03.709Z,14.72
2023-05-08T00:19:35.859Z,14.72
2023-05-08T00:20:07.866Z,14.77
2023-05-08T00:20:35.073Z,14.77
2023-05-08T00:20:55.997Z,14.77
2023-05-08T00:21:28.491Z,14.77
2023-05-08T00:21:59.653Z,14.77
2023-05-08T00:22:31.832Z,14.77
2023-05-08T00:23:03.753Z,14.77
2023-05-08T00:23:35.089Z,14.77
2023-05-08T00:23:52.458Z,14.77
2023-05-08T00:24:23.788Z,14.77
2023-05-08T00:24:40.970Z,14.77
2023-05-08T00:25:13.875Z,14.77
2023-05-08T00:25:35.046Z,14.77
2023-05-08T00:25:59.899Z,14.77
2023-05-08T00:26:32.484Z,14.77
2023-05-08T00:27:03.750Z,14.77
2023-05-08T00:27:35.095Z,14.77
2023-05-08T00:27:52.561Z,14.77
2023-05-08T00:28:23.966Z,14.77
2023-05-08T00:28:41.002Z,14.77
2023-05-08T00:29:12.591Z,14.77
2023-05-08T00:29:35.096Z,14.77
2023-05-08T00:29:59.720Z,14.77
2023-05-08T00:30:32.867Z,14.77
2023-05-08T00:31:03.726Z,14.77
2023-05-08T00:31:35.077Z,14.77
2023-05-08T00:31:53.635Z,14.77
2023-05-08T00:32:24.226Z,14.77
2023-05-08T00:32:41.530Z,14.77
2023-05-08T00:33:12.808Z,14.77
2023-05-08T00:33:35.705Z,14.77
2023-05-08T00:33:59.648Z,14.77
2023-05-08T00:34:32.567Z,14.77
2023-05-08T00:35:04.155Z,14.77
2023-05-08T00:35:35.136Z,14.77
2023-05-08T00:35:52.839Z,14.77
2023-05-08T00:36:23.985Z,14.77
2023-05-08T00:36:40.839Z,14.77
2023-05-08T00:37:12.589Z,14.77
2023-05-08T00:37:35.060Z,14.77
2023-05-08T00:37:59.624Z,14.77
2023-05-08T00:38:32.526Z,14.77
2023-05-08T00:39:03.801Z,14.77
2023-05-08T00:39:35.042Z,14.77
2023-05-08T00:39:52.558Z,14.77
2023-05-08T00:40:24.135Z,14.77
2023-05-08T00:40:40.859Z,14.77
2023-05-08T00:41:12.833Z,14.77
2023-05-08T00:41:35.435Z,14.77
2023-05-08T00:41:59.721Z,14.77
2023-05-08T00:42:32.422Z,14.72
2023-05-08T00:43:03.684Z,14.72
2023-05-08T00:43:35.086Z,14.72
2023-05-08T00:43:52.597Z,14.72
2023-05-08T00:44:24.018Z,14.72
2023-05-08T00:44:40.896Z,14.72
2023-05-08T00:45:12.954Z,14.72
2023-05-08T00:45:35.049Z,14.72
2023-05-08T00:45:59.896Z,14.72
2023-05-08T00:46:32.523Z,14.72
2023-05-08T00:47:03.754Z,14.72
2023-05-08T00:47:35.618Z,14.72
2023-05-08T00:48:07.704Z,14.72
2023-05-08T00:48:35.473Z,14.72
2023-05-08T00:48:56.686Z,14.72
2023-05-08T00:49:27.968Z,14.72
2023-05-08T00:49:59.691Z,14.72
2023-05-08T00:50:32.062Z,14.72
2023-05-08T00:51:03.707Z,14.72
2023-05-08T00:51:35.050Z,14.72
2023-05-08T00:51:51.965Z,14.61
2023-05-08T00:52:24.600Z,14.61
2023-05-08T00:52:42.562Z,14.61
2023-05-08T00:53:11.958Z,14.61
2023-05-08T00:53:35.752Z,14.61
2023-05-08T00:54:41.968Z,14.61
2023-05-08T00:55:48.330Z,14.61
2023-05-08T00:56:54.530Z,14.61
2023-05-08T00:58:00.706Z,14.61
2023-05-08T00:59:06.888Z,14.61
2023-05-08T00:59:35.759Z,14.61
2023-05-08T01:00:08.055Z,14.61
2023-05-08T01:00:35.053Z,14.61
2023-05-08T01:00:55.895Z,14.61
2023-05-08T01:01:27.802Z,14.50
2023-05-08T01:02:00.334Z,14.50
2023-05-08T01:02:32.040Z,14.38
2023-05-08T01:03:04.522Z,14.38
2023-05-08T01:03:35.143Z,14.38
2023-05-08T01:03:52.174Z,14.38
2023-05-08T01:04:24.592Z,14.27
2023-05-08T01:04:41.931Z,14.27
2023-05-08T01:05:12.098Z,14.27
2023-05-08T01:05:35.277Z,14.27
2023-05-08T01:06:00.545Z,14.27
2023-05-08T01:06:32.112Z,14.27
2023-05-08T01:07:03.688Z,14.22
2023-05-08T01:07:35.065Z,14.22
2023-05-08T01:07:52.053Z,14.22
2023-05-08T01:08:24.509Z,14.22
2023-05-08T01:08:41.761Z,14.22
2023-05-08T01:09:11.902Z,14.22
2023-05-08T01:09:35.527Z,14.22
2023-05-08T01:10:00.708Z,14.22
2023-05-08T01:10:31.927Z,14.22
2023-05-08T01:11:03.682Z,14.22
2023-05-08T01:11:35.117Z,14.22
2023-05-08T01:11:51.802Z,14.11
2023-05-08T01:12:24.601Z,14.11
2023-05-08T01:12:41.780Z,14.11
2023-05-08T01:13:11.945Z,14.11
2023-05-08T01:13:35.077Z,14.11
2023-05-08T01:14:00.483Z,14.11
2023-05-08T01:14:31.881Z,14.11
2023-05-08T01:15:04.493Z,14.11
2023-05-08T01:15:35.076Z,14.11
2023-05-08T01:15:52.122Z,14.11
2023-05-08T01:16:24.395Z,14.11
2023-05-08T01:16:41.940Z,14.11
2023-05-08T01:17:11.989Z,14.00
2023-05-08T01:17:35.731Z,14.00
2023-05-08T01:18:00.613Z,13.88
2023-05-08T01:18:31.882Z,13.88
2023-05-08T01:19:03.671Z,13.77
2023-05-08T01:19:35.114Z,13.77
2023-05-08T01:19:51.958Z,13.77
2023-05-08T01:20:24.752Z,13.72
2023-05-08T01:20:41.922Z,13.72
2023-05-08T01:21:11.987Z,13.72
2023-05-08T01:21:35.096Z,13.72
2023-05-08T01:22:00.530Z,13.72
2023-05-08T01:22:32.034Z,13.61
2023-05-08T01:23:04.440Z,13.61
2023-05-08T01:23:35.072Z,13.61
2023-05-08T01:23:51.969Z,13.61
2023-05-08T01:24:24.365Z,13.61
2023-05-08T01:24:41.728Z,13.61
2023-05-08T01:25:12.041Z,13.50
2023-05-08T01:25:35.097Z,13.50
2023-05-08T01:26:00.602Z,13.50
2023-05-08T01:26:31.899Z,13.50
2023-05-08T01:27:03.672Z,13.50
2023-05-08T01:27:35.515Z,13.50
2023-05-08T01:28:07.689Z,13.61
2023-05-08T01:28:35.083Z,13.61
2023-05-08T01:28:55.777Z,13.61
2023-05-08T01:29:28.479Z,13.61
2023-05-08T01:29:59.687Z,13.61
2023-05-08T01:30:32.888Z,13.61
2023-05-08T01:31:03.695Z,13.61
2023-05-08T01:31:35.669Z,13.61
2023-05-08T01:32:07.699Z,13.61
2023-05-08T01:32:35.128Z,13.61
2023-05-08T01:32:56.750Z,13.61
2023-05-08T01:33:27.783Z,13.61
2023-05-08T01:33:59.811Z,13.61
2023-05-08T01:34:31.904Z,13.61
2023-05-08T01:35:04.090Z,13.61
2023-05-08T01:35:35.188Z,13.61
2023-05-08T01:35:52.175Z,13.61
2023-05-08T01:36:24.398Z,13.61
2023-05-08T01:36:41.553Z,13.61
2023-05-08T01:37:11.932Z,13.50
2023-05-08T01:37:35.813Z,13.50
2023-05-08T01:38:00.398Z,13.50
2023-05-08T01:38:32.186Z,13.50
2023-05-08T01:39:04.580Z,13.50
2023-05-08T01:39:35.354Z,13.50
2023-05-08T01:40:07.912Z,13.61
2023-05-08T01:40:35.666Z,13.61
2023-05-08T01:40:55.931Z,13.61
2023-05-08T01:41:28.377Z,13.72
2023-05-08T01:41:59.710Z,13.72
2023-05-08T01:42:31.879Z,13.72
2023-05-08T01:43:03.750Z,13.61
2023-05-08T01:43:35.294Z,13.61
2023-05-08T01:43:52.575Z,13.61
2023-05-08T01:44:23.964Z,13.61
2023-05-08T01:44:40.925Z,13.61
2023-05-08T01:45:24.398Z,13.61
2023-05-08T01:45:53.901Z,13.61
2023-05-08T01:46:15.751Z,13.61
2023-05-08T01:46:35.552Z,13.61
2023-05-08T01:47:07.357Z,13.61
2023-05-08T01:47:35.140Z,13.61
2023-05-08T01:47:53.718Z,13.50
2023-05-08T01:48:35.037Z,13.50
2023-05-08T01:48:56.098Z,13.50
2023-05-08T01:49:27.760Z,13.50
2023-05-08T01:49:59.651Z,13.50
2023-05-08T01:50:32.033Z,13.38
2023-05-08T01:51:03.702Z,13.38
2023-05-08T01:51:36.227Z,13.38
2023-05-08T01:51:51.926Z,13.38
2023-05-08T01:52:26.287Z,13.27
2023-05-08T01:52:45.483Z,13.27
2023-05-08T01:53:12.663Z,13.27
2023-05-08T01:53:35.099Z,13.27
2023-05-08T01:54:41.286Z,13.27
2023-05-08T01:55:47.698Z,13.27
2023-05-08T01:56:53.884Z,13.27
2023-05-08T01:58:00.050Z,13.27
2023-05-08T01:59:06.248Z,13.27
2023-05-08T01:59:36.101Z,13.27
2023-05-08T02:00:08.083Z,13.27
2023-05-08T02:00:35.153Z,13.27
2023-05-08T02:00:55.944Z,13.38
2023-05-08T02:01:27.746Z,13.38
2023-05-08T02:02:00.280Z,13.38
2023-05-08T02:02:31.877Z,13.38
2023-05-08T02:03:03.691Z,13.38
2023-05-08T02:03:35.299Z,13.38
2023-05-08T02:03:52.200Z,13.38
2023-05-08T02:04:24.284Z,13.50
2023-05-08T02:04:41.338Z,13.50
2023-05-08T02:05:12.489Z,13.50
2023-05-08T02:05:35.098Z,13.50
2023-05-08T02:05:59.838Z,13.50
2023-05-08T02:06:32.532Z,13.50
2023-05-08T02:07:03.629Z,13.50
2023-05-08T02:07:35.455Z,13.50
2023-05-08T02:08:07.660Z,13.50
2023-05-08T02:08:35.563Z,13.50
2023-05-08T02:08:56.532Z,13.50
2023-05-08T02:09:27.892Z,13.50
2023-05-08T02:09:59.674Z,13.50
2023-05-08T02:10:32.037Z,13.50
2023-05-08T02:11:03.666Z,13.50
2023-05-08T02:11:35.054Z,13.50
2023-05-08T02:11:51.907Z,13.50
2023-05-08T02:12:24.669Z,13.50
2023-05-08T02:12:41.572Z,13.50
2023-05-08T02:13:11.843Z,13.50
2023-05-08T02:13:35.148Z,13.50
2023-05-08T02:14:00.780Z,13.50
2023-05-08T02:14:31.943Z,13.50
2023-05-08T02:15:03.919Z,13.50
2023-05-08T02:15:35.038Z,13.50
2023-05-08T02:15:51.939Z,13.50
2023-05-08T02:16:24.362Z,13.50
2023-05-08T02:16:41.862Z,13.50
2023-05-08T02:17:11.887Z,13.50
2023-05-08T02:17:35.146Z,13.50
2023-05-08T02:18:00.478Z,13.50
2023-05-08T02:18:31.964Z,13.50
2023-05-08T02:19:03.717Z,13.50
2023-05-08T02:19:35.139Z,13.50
2023-05-08T02:19:51.856Z,13.50
2023-05-08T02:20:24.639Z,13.50
2023-05-08T02:20:41.732Z,13.50
2023-05-08T02:21:11.729Z,13.50
2023-05-08T02:21:35.595Z,13.50
2023-05-08T02:22:00.571Z,13.50
2023-05-08T02:22:31.885Z,13.50
2023-05-08T02:23:03.683Z,13.50
2023-05-08T02:23:35.081Z,13.50
2023-05-08T02:23:52.097Z,13.50
2023-05-08T02:24:24.898Z,13.50
2023-05-08T02:24:41.898Z,13.50
2023-05-08T02:25:11.865Z,13.50
2023-05-08T02:25:35.189Z,13.50
2023-05-08T02:26:00.509Z,13.50
2023-05-08T02:26:31.863Z,13.50
2023-05-08T02:27:03.669Z,13.50
2023-05-08T02:27:35.147Z,13.50
2023-05-08T02:27:51.940Z,13.50
2023-05-08T02:28:24.582Z,13.50
2023-05-08T02:28:41.584Z,13.50
2023-05-08T02:29:11.914Z,13.50
2023-05-08T02:29:35.126Z,13.50
2023-05-08T02:30:00.788Z,13.50
2023-05-08T02:30:31.805Z,13.50
2023-05-08T02:31:03.638Z,13.50
2023-05-08T02:31:35.143Z,13.50
2023-05-08T02:31:51.944Z,13.50
2023-05-08T02:32:24.506Z,13.50
2023-05-08T02:32:41.612Z,13.50
2023-05-08T02:33:11.853Z,13.50
2023-05-08T02:33:35.056Z,13.50
2023-05-08T02:34:00.638Z,13.38
2023-05-08T02:34:31.925Z,13.38
2023-05-08T02:35:04.025Z,13.38
2023-05-08T02:35:35.076Z,13.38
2023-05-08T02:35:51.983Z,13.38
2023-05-08T02:36:24.764Z,13.38
2023-05-08T02:36:41.514Z,13.38
2023-05-08T02:37:27.868Z,13.38
2023-05-08T02:38:00.405Z,13.50
2023-05-08T02:38:31.901Z,13.50
2023-05-08T02:39:04.844Z,13.50
2023-05-08T02:39:36.331Z,13.50
2023-05-08T02:40:07.797Z,13.50
2023-05-08T02:40:35.692Z,13.38
2023-05-08T02:40:56.071Z,13.38
2023-05-08T02:41:28.646Z,13.38
2023-05-08T02:41:59.645Z,13.38
2023-05-08T02:42:31.845Z,13.27
2023-05-08T02:43:03.635Z,13.27
2023-05-08T02:43:35.093Z,13.27
2023-05-08T02:43:52.635Z,13.22
2023-05-08T02:44:23.997Z,13.22
2023-05-08T02:44:40.826Z,13.22
2023-05-08T02:45:12.989Z,13.11
2023-05-08T02:45:35.478Z,13.11
2023-05-08T02:45:59.830Z,13.11
2023-05-08T02:46:32.445Z,13.11
2023-05-08T02:47:04.660Z,13.00
2023-05-08T02:47:36.298Z,13.00
2023-05-08T02:48:07.727Z,13.00
2023-05-08T02:48:35.611Z,13.00
2023-05-08T02:48:56.652Z,13.00
2023-05-08T02:49:27.870Z,13.00
2023-05-08T02:49:59.750Z,13.00
2023-05-08T02:50:32.130Z,13.00
2023-05-08T02:51:03.675Z,13.00
2023-05-08T02:51:35.087Z,13.00
2023-05-08T02:51:51.698Z,13.00
2023-05-08T02:52:24.726Z,13.00
2023-05-08T02:52:41.584Z,13.00
2023-05-08T02:53:11.729Z,13.00
2023-05-08T02:53:35.126Z,13.00
2023-05-08T02:54:00.489Z,12.88
2023-05-08T02:54:31.743Z,12.88
2023-05-08T02:55:04.002Z,12.88
2023-05-08T02:55:35.106Z,12.88
2023-05-08T02:55:51.895Z,13.00
2023-05-08T02:56:24.700Z,13.00
2023-05-08T02:56:41.577Z,13.00
2023-05-08T02:57:11.721Z,13.00
2023-05-08T02:57:35.105Z,13.00
2023-05-08T02:58:00.342Z,13.11
2023-05-08T02:58:31.915Z,13.11
2023-05-08T02:59:03.620Z,13.11
2023-05-08T02:59:35.164Z,13.11
2023-05-08T02:59:51.756Z,13.11
2023-05-08T03:00:25.175Z,13.11
2023-05-08T03:00:41.641Z,13.11
2023-05-08T03:01:11.769Z,13.11
2023-05-08T03:01:35.226Z,13.11
2023-05-08T03:02:00.356Z,13.11
2023-05-08T03:02:31.708Z,13.11
2023-05-08T03:03:04.419Z,13.11
2023-05-08T03:03:35.139Z,13.11
2023-05-08T03:03:51.888Z,13.11
2023-05-08T03:04:24.429Z,13.11
2023-05-08T03:04:41.625Z,13.11
2023-05-08T03:05:11.938Z,13.11
2023-05-08T03:05:35.156Z,13.11
2023-05-08T03:06:00.641Z,13.11
2023-05-08T03:06:31.731Z,13.11
2023-05-08T03:07:03.646Z,13.11
2023-05-08T03:07:35.544Z,13.11
2023-05-08T03:08:07.612Z,13.11
2023-05-08T03:08:35.076Z,13.11
2023-05-08T03:08:55.715Z,13.11
2023-05-08T03:09:28.362Z,13.11
2023-05-08T03:09:59.680Z,13.11
2023-05-08T03:10:31.947Z,13.11
2023-05-08T03:11:03.676Z,13.11
2023-05-08T03:11:35.715Z,13.11
2023-05-08T03:12:07.641Z,13.22
2023-05-08T03:12:35.117Z,13.22
2023-05-08T03:12:56.585Z,13.22
2023-05-08T03:13:27.846Z,13.22
2023-05-08T03:14:00.658Z,13.27
2023-05-08T03:14:31.788Z,13.27
2023-05-08T03:15:03.940Z,13.27
2023-05-08T03:15:35.102Z,13.27
2023-05-08T03:15:52.119Z,13.27
2023-05-08T03:16:24.449Z,13.27
2023-05-08T03:16:41.660Z,13.27
2023-05-08T03:17:11.721Z,13.27
2023-05-08T03:17:35.128Z,13.27
2023-05-08T03:18:00.546Z,13.27
2023-05-08T03:18:31.737Z,13.27
2023-05-08T03:19:03.656Z,13.27
2023-05-08T03:19:35.583Z,13.38
2023-05-08T03:20:07.786Z,13.38
2023-05-08T03:20:35.296Z,13.38
2023-05-08T03:20:56.150Z,13.38
2023-05-08T03:21:28.302Z,13.38
2023-05-08T03:21:59.685Z,13.27
2023-05-08T03:22:31.803Z,13.27
2023-05-08T03:23:03.673Z,13.27
2023-05-08T03:23:35.499Z,13.27
2023-05-08T03:24:07.696Z,13.27
2023-05-08T03:24:35.703Z,13.27
2023-05-08T03:24:56.448Z,13.27
2023-05-08T03:25:28.076Z,13.27
2023-05-08T03:25:59.590Z,13.27
2023-05-08T03:26:31.740Z,13.27
2023-05-08T03:27:03.750Z,13.27
2023-05-08T03:27:35.081Z,13.27
2023-05-08T03:27:51.815Z,13.22
2023-05-08T03:28:24.863Z,13.22
2023-05-08T03:28:41.889Z,13.22
2023-05-08T03:29:11.727Z,13.22
2023-05-08T03:29:35.120Z,13.22
2023-05-08T03:29:59.635Z,13.22
2023-05-08T03:30:32.768Z,13.22
2023-05-08T03:31:03.856Z,13.22
2023-05-08T03:31:35.119Z,13.22
2023-05-08T03:31:52.623Z,13.22
2023-05-08T03:32:23.797Z,13.27
2023-05-08T03:32:41.245Z,13.27
2023-05-08T03:33:12.610Z,13.27
2023-05-08T03:33:35.125Z,13.27
2023-05-08T03:33:59.626Z,13.27
2023-05-08T03:34:32.370Z,13.38
2023-05-08T03:35:04.451Z,13.38
2023-05-08T03:35:35.439Z,13.38
2023-05-08T03:36:08.447Z,13.38
2023-05-08T03:36:35.163Z,13.38
2023-05-08T03:36:55.762Z,13.38
2023-05-08T03:37:28.363Z,13.38
2023-05-08T03:37:59.699Z,13.38
2023-05-08T03:38:31.777Z,13.38
2023-05-08T03:39:03.638Z,13.38
2023-05-08T03:39:35.171Z,13.38
2023-05-08T03:39:52.663Z,13.38
2023-05-08T03:40:24.136Z,13.38
2023-05-08T03:40:41.096Z,13.38
2023-05-08T03:41:13.141Z,13.38
2023-05-08T03:41:35.094Z,13.38
2023-05-08T03:41:59.623Z,13.38
2023-05-08T03:42:32.373Z,13.38
2023-05-08T03:43:03.602Z,13.38
2023-05-08T03:43:35.101Z,13.38
2023-05-08T03:43:52.519Z,13.38
2023-05-08T03:44:24.206Z,13.38
2023-05-08T03:44:40.980Z,13.38
2023-05-08T03:45:13.081Z,13.38
2023-05-08T03:45:35.123Z,13.38
2023-05-08T03:45:59.752Z,13.38
2023-05-08T03:46:32.568Z,13.38
2023-05-08T03:47:03.686Z,13.38
2023-05-08T03:47:35.282Z,13.38
2023-05-08T03:47:52.538Z,13.27
2023-05-08T03:48:23.654Z,13.27
2023-05-08T03:48:41.117Z,13.27
2023-05-08T03:49:11.700Z,13.27
2023-05-08T03:49:35.127Z,13.27
2023-05-08T03:50:00.645Z,13.27
2023-05-08T03:50:31.737Z,13.27
2023-05-08T03:51:03.640Z,13.27
2023-05-08T03:51:35.467Z,13.27
2023-05-08T03:51:51.672Z,13.27
2023-05-08T03:52:24.689Z,13.27
2023-05-08T03:52:41.579Z,13.27
2023-05-08T03:53:11.945Z,13.27
2023-05-08T03:53:35.115Z,13.27
2023-05-08T03:53:59.637Z,13.27
2023-05-08T03:54:32.478Z,13.27
2023-05-08T03:55:03.894Z,13.27
2023-05-08T03:55:35.201Z,13.27
2023-05-08T03:55:52.894Z,13.27
2023-05-08T03:56:25.900Z,13.27
2023-05-08T03:56:40.865Z,13.27
2023-05-08T03:57:12.771Z,13.27
2023-05-08T03:57:35.471Z,13.27
2023-05-08T03:57:59.773Z,13.27
2023-05-08T03:58:32.635Z,13.27
2023-05-08T03:59:04.372Z,13.22
2023-05-08T03:59:35.110Z,13.22
2023-05-08T03:59:52.709Z,13.22
2023-05-08T04:00:24.219Z,13.22
2023-05-08T04:00:41.071Z,13.22
2023-05-08T04:01:12.839Z,13.22
2023-05-08T04:01:35.804Z,13.22
2023-05-08T04:01:59.783Z,13.22
2023-05-08T04:02:33.350Z,13.22
2023-05-08T04:03:04.156Z,13.11
2023-05-08T04:03:35.453Z,13.11
2023-05-08T04:03:53.330Z,13.11
2023-05-08T04:04:24.185Z,13.11
2023-05-08T04:04:41.497Z,13.11
2023-05-08T04:05:14.413Z,13.11
2023-05-08T04:05:35.257Z,13.11
2023-05-08T04:06:00.301Z,13.00
2023-05-08T04:06:42.149Z,13.00
2023-05-08T04:07:04.858Z,13.00
2023-05-08T04:07:35.252Z,12.88
2023-05-08T04:07:52.970Z,12.88
2023-05-08T04:08:25.091Z,12.88
2023-05-08T04:08:41.929Z,12.77
2023-05-08T04:09:12.134Z,12.77
2023-05-08T04:09:35.715Z,12.77
2023-05-08T04:09:59.842Z,12.77
2023-05-08T04:10:33.047Z,12.72
2023-05-08T04:11:04.334Z,12.72
2023-05-08T04:11:35.290Z,12.72
2023-05-08T04:11:52.993Z,12.72
2023-05-08T04:12:23.773Z,12.72
2023-05-08T04:12:41.226Z,12.72
2023-05-08T04:13:12.944Z,12.72
2023-05-08T04:13:35.325Z,12.72
2023-05-08T04:13:59.795Z,12.72
2023-05-08T04:14:31.822Z,12.72
2023-05-08T04:15:04.651Z,12.72
2023-05-08T04:15:38.188Z,12.72
2023-05-08T04:16:08.518Z,12.72
2023-05-08T04:16:35.872Z,12.77
2023-05-08T04:16:58.968Z,12.77
2023-05-08T04:17:28.348Z,12.77
2023-05-08T04:18:00.755Z,12.77
2023-05-08T04:18:32.086Z,12.77
2023-05-08T04:19:04.556Z,12.77
2023-05-08T04:19:36.177Z,12.77
2023-05-08T04:20:08.587Z,12.77
2023-05-08T04:20:35.913Z,12.77
2023-05-08T04:20:56.720Z,12.77
2023-05-08T04:21:28.756Z,12.77
2023-05-08T04:22:00.032Z,12.77
2023-05-08T04:22:32.073Z,12.77
2023-05-08T04:23:03.779Z,12.72
2023-05-08T04:23:38.025Z,12.72
2023-05-08T04:24:08.017Z,12.72
2023-05-08T04:24:35.402Z,12.72
2023-05-08T04:24:58.238Z,12.72
2023-05-08T04:25:28.092Z,12.72
2023-05-08T04:25:59.850Z,12.72
2023-05-08T04:26:32.084Z,12.72
2023-05-08T04:27:04.073Z,12.72
2023-05-08T04:27:35.742Z,12.72
2023-05-08T04:28:07.843Z,12.77
2023-05-08T04:28:35.318Z,12.88
2023-05-08T04:28:56.591Z,12.88
2023-05-08T04:29:28.573Z,12.88
2023-05-08T04:29:59.996Z,12.88
2023-05-08T04:30:32.136Z,12.88
2023-05-08T04:31:03.843Z,12.88
2023-05-08T04:31:36.403Z,12.88
2023-05-08T04:31:53.236Z,12.88
2023-05-08T04:32:24.153Z,12.88
2023-05-08T04:32:42.798Z,12.88
2023-05-08T04:33:14.079Z,12.77
2023-05-08T04:33:35.703Z,12.77
2023-05-08T04:33:59.800Z,12.77
2023-05-08T04:34:32.672Z,12.77
2023-05-08T04:35:04.072Z,12.77
2023-05-08T04:35:36.177Z,12.77
2023-05-08T04:36:07.904Z,12.77
2023-05-08T04:36:35.304Z,12.77
2023-05-08T04:36:56.928Z,12.77
2023-05-08T04:37:27.961Z,12.77
2023-05-08T04:38:00.538Z,12.88
2023-05-08T04:38:32.368Z,12.88
2023-05-08T04:39:03.887Z,12.88
2023-05-08T04:39:35.321Z,12.88
2023-05-08T04:39:52.085Z,12.88
2023-05-08T04:40:23.997Z,12.88
2023-05-08T04:40:42.617Z,12.88
2023-05-08T04:41:12.917Z,12.88
2023-05-08T04:41:35.545Z,12.88
2023-05-08T04:42:00.474Z,12.88
2023-05-08T04:42:31.916Z,12.88
2023-05-08T04:43:04.936Z,12.88
2023-05-08T04:43:35.483Z,12.88
2023-05-08T04:43:53.016Z,12.88
2023-05-08T04:44:24.683Z,12.88
2023-05-08T04:44:41.899Z,12.88
2023-05-08T04:45:12.516Z,13.00
2023-05-08T04:45:35.747Z,13.00
2023-05-08T04:46:01.710Z,13.00
2023-05-08T04:46:31.950Z,13.00
2023-05-08T04:47:04.681Z,13.00
2023-05-08T04:47:35.918Z,13.00
2023-05-08T04:47:52.259Z,13.00
2023-05-08T04:48:25.081Z,13.00
2023-05-08T04:48:42.664Z,13.00
2023-05-08T04:49:13.842Z,13.00
2023-05-08T04:49:35.491Z,13.00
2023-05-08T04:50:02.213Z,13.00
2023-05-08T04:50:33.259Z,13.00
2023-05-08T04:51:04.154Z,13.00
2023-05-08T04:51:35.917Z,13.00
2023-05-08T04:52:07.860Z,13.11
2023-05-08T04:52:35.373Z,13.11
2023-05-08T04:52:57.727Z,13.11
2023-05-08T04:53:28.355Z,13.11
2023-05-08T04:54:01.667Z,13.11
2023-05-08T04:54:31.897Z,13.11
2023-05-08T04:55:04.225Z,13.11
2023-05-08T04:55:36.571Z,13.11
2023-05-08T04:56:08.167Z,13.22
2023-05-08T04:56:35.361Z,13.22
2023-05-08T04:56:57.266Z,13.22
2023-05-08T04:57:28.550Z,13.22
2023-05-08T04:58:01.033Z,13.22
2023-05-08T04:58:32.789Z,13.22
2023-05-08T04:59:04.515Z,13.22
2023-05-08T04:59:35.346Z,13.22
2023-05-08T04:59:54.607Z,13.22
2023-05-08T05:00:25.650Z,13.22
2023-05-08T05:00:43.296Z,13.22
2023-05-08T05:01:11.924Z,13.22
2023-05-08T05:01:35.572Z,13.22
2023-05-08T05:01:59.918Z,13.22
2023-05-08T05:02:32.057Z,13.22
2023-05-08T05:03:04.638Z,13.22
2023-05-08T05:03:38.017Z,13.22
2023-05-08T05:04:10.045Z,13.22
2023-05-08T05:04:36.228Z,13.22
2023-05-08T05:04:56.666Z,13.22
2023-05-08T05:05:29.931Z,13.22
2023-05-08T05:06:00.718Z,13.22
2023-05-08T05:06:32.288Z,13.22
2023-05-08T05:07:07.589Z,13.27
2023-05-08T05:07:35.992Z,13.27
2023-05-08T05:07:52.648Z,13.27
2023-05-08T05:08:25.868Z,13.27
2023-05-08T05:08:45.127Z,13.27
2023-05-08T05:09:12.739Z,13.27
2023-05-08T05:09:36.103Z,13.27
2023-05-08T05:10:02.547Z,13.27
2023-05-08T05:10:32.518Z,13.27
2023-05-08T05:11:04.050Z,13.27
2023-05-08T05:11:38.790Z,13.27
2023-05-08T05:12:08.166Z,13.27
2023-05-08T05:12:35.970Z,13.27
2023-05-08T05:12:57.287Z,13.38
2023-05-08T05:13:28.119Z,13.38
2023-05-08T05:14:01.164Z,13.38
2023-05-08T05:14:34.614Z,13.38
2023-05-08T05:15:04.141Z,13.38
2023-05-08T05:15:38.290Z,13.38
2023-05-08T05:15:54.001Z,13.38
2023-05-08T05:16:24.719Z,13.38
2023-05-08T05:16:43.811Z,13.38
2023-05-08T05:17:15.912Z,13.38
2023-05-08T05:17:36.882Z,13.50
2023-05-08T05:18:01.088Z,13.50
2023-05-08T05:18:32.787Z,13.50
2023-05-08T05:19:05.448Z,13.50
2023-05-08T05:19:37.962Z,13.50
2023-05-08T05:20:09.809Z,13.50
2023-05-08T05:20:39.614Z,13.50
2023-05-08T05:20:56.745Z,13.50
2023-05-08T05:21:27.986Z,13.50
2023-05-08T05:22:00.529Z,13.50
2023-05-08T05:22:36.087Z,13.50
2023-05-08T05:23:05.357Z,13.50
2023-05-08T05:23:36.728Z,13.50
2023-05-08T05:24:10.267Z,13.61
2023-05-08T05:24:37.130Z,13.61
2023-05-08T05:24:57.381Z,13.61
2023-05-08T05:25:28.060Z,13.61
2023-05-08T05:26:02.991Z,13.61
2023-05-08T05:26:36.361Z,13.61
2023-05-08T05:27:03.835Z,13.61
2023-05-08T05:27:36.567Z,13.61
2023-05-08T05:28:07.991Z,13.61
2023-05-08T05:28:35.905Z,13.61
2023-05-08T05:28:56.085Z,13.61
2023-05-08T05:29:28.156Z,13.61
2023-05-08T05:29:59.789Z,13.61
2023-05-08T05:30:34.520Z,13.61
2023-05-08T05:31:03.913Z,13.72
2023-05-08T05:31:35.979Z,13.72
2023-05-08T05:32:07.824Z,13.72
2023-05-08T05:32:35.439Z,13.72
2023-05-08T05:32:56.020Z,13.72
2023-05-08T05:33:28.381Z,13.72
2023-05-08T05:33:59.796Z,13.72
2023-05-08T05:34:33.418Z,13.72
2023-05-08T05:35:04.610Z,13.72
2023-05-08T05:35:36.086Z,13.72
2023-05-08T05:36:09.676Z,13.72
2023-05-08T05:36:36.877Z,13.72
2023-05-08T05:36:57.548Z,13.72
2023-05-08T05:37:28.631Z,13.77
2023-05-08T05:38:03.056Z,13.77
2023-05-08T05:38:33.394Z,13.77
2023-05-08T05:39:05.318Z,13.77
2023-05-08T05:39:36.628Z,13.77
2023-05-08T05:40:09.435Z,13.77
2023-05-08T05:40:38.340Z,13.77
2023-05-08T05:40:57.376Z,13.88
2023-05-08T05:41:30.078Z,13.88
2023-05-08T05:42:00.499Z,13.88
2023-05-08T05:42:32.075Z,13.88
2023-05-08T05:43:03.919Z,13.88
2023-05-08T05:43:36.935Z,13.88
2023-05-08T05:44:08.132Z,13.88
2023-05-08T05:44:36.042Z,13.88
2023-05-08T05:44:59.173Z,13.88
2023-05-08T05:45:29.802Z,14.00
2023-05-08T05:46:03.568Z,14.00
2023-05-08T05:46:37.077Z,14.00
2023-05-08T05:47:04.814Z,14.00
2023-05-08T05:47:36.267Z,14.00
2023-05-08T05:48:13.481Z,14.00
2023-05-08T05:48:37.072Z,14.11
2023-05-08T05:48:56.842Z,14.11
2023-05-08T05:49:30.849Z,14.11
2023-05-08T05:50:00.360Z,14.00
2023-05-08T05:50:34.907Z,14.00
2023-05-08T05:51:04.468Z,14.00
2023-05-08T05:51:35.259Z,14.00
2023-05-08T05:51:51.943Z,14.11
2023-05-08T05:52:23.816Z,14.11
2023-05-08T05:52:40.965Z,14.11
2023-05-08T05:53:14.420Z,14.11
2023-05-08T05:53:37.154Z,14.11
2023-05-08T05:54:00.105Z,14.11
2023-05-08T05:54:32.087Z,14.22
2023-05-08T05:55:04.026Z,14.22
2023-05-08T05:55:35.287Z,14.22
2023-05-08T05:55:52.582Z,14.22
2023-05-08T05:56:23.755Z,14.22
2023-05-08T05:56:41.780Z,14.22
2023-05-08T05:57:13.861Z,14.27
2023-05-08T05:57:36.063Z,14.27
2023-05-08T05:58:00.624Z,14.27
2023-05-08T05:58:33.018Z,14.27
2023-05-08T05:59:03.799Z,14.27
2023-05-08T05:59:36.249Z,14.27
2023-05-08T06:00:08.512Z,14.27
2023-05-08T06:00:35.557Z,14.27
2023-05-08T06:01:00.274Z,14.27
2023-05-08T06:01:29.586Z,14.38
2023-05-08T06:02:00.718Z,14.38
2023-05-08T06:02:36.562Z,14.38
2023-05-08T06:03:04.124Z,14.38
2023-05-08T06:03:35.540Z,14.38
2023-05-08T06:03:52.006Z,14.38
2023-05-08T06:04:25.215Z,14.38
2023-05-08T06:04:43.406Z,14.38
2023-05-08T06:05:12.617Z,14.38
2023-05-08T06:05:38.034Z,14.38
2023-05-08T06:06:02.711Z,14.50